»·PEaware :: N13M KBUR-KLAS

N13M :: KBUR-KLAS

FLIGHT INFORMATION

Flight Status: Arrived
Operator: Privately registered:
United States
More flights under this callsign
Pilot: Zhuojun Y. (28503)
Aircraft: SOCATA TBM-900
(TBM9)
More flights by this aircraft type
Origin: KBUR Bob Hope-Burbank
United States
Destination: KLAS McCarran Intl
United States
More flights between these airports :: More routes between these airports
Route: +VNY3 DAG CRESO4
File this flight plan on PilotEdge
Remarks: I5 RATING
Altitude:
(Current/Filed)
11,000ft
Speed:
(Current/Filed)
220kts
Departed: 13-Apr-20 08:13 AM
Arrived: 13-Apr-20 09:19 AM
Distance/Time
Traveled:
193nm/1:06
Distance/Time
To Go:
Arrived

Flight Plot

Page will automatically refresh every two minutes.

Flight plan parsing failed; only flown route is shown


Map Options




Map Legend


Flown Route
Filed Route
Departure Airport
Arrival Airport
Navaid (VOR, NDB)
Fix

Horizontal Profiles

Position Reports

Time Latitude Longitude Heading Altitude Ground
Speed
13-Apr-20 07:55 34.200215 -118.358844 258 737ft 0kts
13-Apr-20 07:56 34.200215 -118.358844 258 737ft 0kts
13-Apr-20 07:57 34.200215 -118.358844 258 737ft 0kts
13-Apr-20 07:58 34.200215 -118.358844 258 737ft 0kts
13-Apr-20 07:59 34.200215 -118.358844 258 737ft 0kts
13-Apr-20 08:00 34.200215 -118.358844 258 737ft 0kts
13-Apr-20 08:01 34.200215 -118.358844 258 737ft 0kts
13-Apr-20 08:02 34.200215 -118.358844 258 737ft 0kts
13-Apr-20 08:03 34.200215 -118.358844 258 737ft 0kts
13-Apr-20 08:04 34.200215 -118.358844 258 737ft 0kts
13-Apr-20 08:05 34.200214 -118.358851 258 737ft 0kts
13-Apr-20 08:06 34.200573 -118.358367 348 737ft 11kts
13-Apr-20 08:07 34.204280 -118.359361 350 737ft 15kts
13-Apr-20 08:08 34.209492 -118.360826 347 737ft 20kts
13-Apr-20 08:09 34.211496 -118.361253 28 737ft 0kts
13-Apr-20 08:10 34.211496 -118.361253 28 737ft 0kts
13-Apr-20 08:11 34.211583 -118.361188 31 737ft 5kts
13-Apr-20 08:12 34.201162 -118.357389 167 852ft 111kts
13-Apr-20 08:13 34.171041 -118.373372 225 2304ft 153kts
13-Apr-20 08:14 34.140092 -118.410782 225 3849ft 164kts
13-Apr-20 08:15 34.101545 -118.457374 225 3851ft 211kts
13-Apr-20 08:16 34.099600 -118.512043 348 3833ft 217kts
13-Apr-20 08:17 34.153616 -118.500404 12 5234ft 174kts
13-Apr-20 08:18 34.197278 -118.489180 12 6854ft 165kts
13-Apr-20 08:19 34.249064 -118.471933 28 6853ft 209kts
13-Apr-20 08:20 34.302005 -118.437295 28 6845ft 216kts
13-Apr-20 08:21 34.352979 -118.404087 28 7602ft 195kts
13-Apr-20 08:22 34.397716 -118.374918 28 9111ft 163kts
13-Apr-20 08:23 34.433353 -118.351668 28 10630ft 154kts
13-Apr-20 08:24 34.476445 -118.311969 53 10870ft 236kts
13-Apr-20 08:25 34.518358 -118.244897 52 10846ft 255kts
13-Apr-20 08:26 34.561744 -118.175505 52 10844ft 257kts
13-Apr-20 08:27 34.605546 -118.105313 52 10844ft 258kts
13-Apr-20 08:28 34.635551 -118.027914 82 10850ft 264kts
13-Apr-20 08:29 34.645145 -117.938611 82 10844ft 266kts
13-Apr-20 08:30 34.654853 -117.849374 82 10844ft 266kts
13-Apr-20 08:31 34.664993 -117.760225 74 10838ft 266kts
13-Apr-20 08:32 34.687287 -117.673423 72 10844ft 266kts
13-Apr-20 08:33 34.709311 -117.587457 72 10844ft 266kts
13-Apr-20 08:34 34.731246 -117.501538 72 10844ft 266kts
13-Apr-20 08:35 34.753165 -117.415399 72 10841ft 255kts
13-Apr-20 08:36 34.773061 -117.336956 72 10841ft 235kts
13-Apr-20 08:37 34.792211 -117.261237 72 10844ft 232kts
13-Apr-20 08:38 34.811126 -117.186234 72 10844ft 231kts
13-Apr-20 08:39 34.830272 -117.110089 72 10851ft 246kts
13-Apr-20 08:40 34.850937 -117.027681 72 10845ft 258kts
13-Apr-20 08:41 34.871999 -116.943388 72 10845ft 263kts
13-Apr-20 08:42 34.892972 -116.859173 72 10843ft 257kts
13-Apr-20 08:43 34.913712 -116.775549 72 10905ft 254kts
13-Apr-20 08:44 34.933959 -116.693778 72 11178ft 250kts
13-Apr-20 08:45 34.954121 -116.612034 72 11220ft 257kts
13-Apr-20 08:46 34.983141 -116.531630 61 10933ft 261kts
13-Apr-20 08:47 35.017539 -116.454314 61 10908ft 257kts
13-Apr-20 08:48 35.051639 -116.377418 61 10908ft 256kts
13-Apr-20 08:49 35.085640 -116.300588 61 10908ft 256kts
13-Apr-20 08:50 35.119624 -116.223614 61 10908ft 256kts
13-Apr-20 08:51 35.153346 -116.147065 61 10908ft 256kts
13-Apr-20 08:52 35.187123 -116.070215 61 10908ft 256kts
13-Apr-20 08:53 35.220779 -115.993467 61 10908ft 256kts
13-Apr-20 08:55 35.254666 -115.916015 61 10908ft 256kts
13-Apr-20 08:56 35.288207 -115.839181 61 10908ft 256kts
13-Apr-20 08:57 35.326460 -115.765780 46 10911ft 256kts
13-Apr-20 08:58 35.374817 -115.701630 47 10908ft 256kts
13-Apr-20 08:59 35.422929 -115.637407 47 10908ft 256kts
13-Apr-20 09:00 35.472390 -115.571252 47 10308ft 269kts
13-Apr-20 09:01 35.522968 -115.503484 47 9906ft 262kts
13-Apr-20 09:02 35.571532 -115.438306 47 9908ft 257kts
13-Apr-20 09:03 35.619594 -115.373691 47 9926ft 256kts
13-Apr-20 09:04 35.667934 -115.308578 47 9926ft 256kts
13-Apr-20 09:05 35.716185 -115.243457 47 9926ft 256kts
13-Apr-20 09:06 35.771790 -115.191382 21 9542ft 259kts
13-Apr-20 09:07 35.838437 -115.158899 21 8015ft 252kts
13-Apr-20 09:08 35.898607 -115.129580 21 7922ft 220kts
13-Apr-20 09:09 35.954886 -115.102111 21 7926ft 215kts
13-Apr-20 09:10 36.011578 -115.074413 21 6845ft 220kts
13-Apr-20 09:11 36.068502 -115.046593 21 5640ft 219kts
13-Apr-20 09:12 36.127324 -115.044808 351 4920ft 200kts
13-Apr-20 09:13 36.179672 -115.057168 343 4782ft 193kts
13-Apr-20 09:13 36.218611 -115.084529 296 4357ft 198kts
13-Apr-20 09:15 36.183824 -115.113280 175 4000ft 170kts
13-Apr-20 09:16 36.143379 -115.130984 207 3496ft 146kts
13-Apr-20 09:16 36.115072 -115.147698 205 2836ft 93kts
13-Apr-20 09:17 36.094077 -115.159566 206 2102ft 43kts
13-Apr-20 09:19 36.089609 -115.162229 208 2123ft 18kts
13-Apr-20 09:19 36.089377 -115.163488 296 2128ft 0kts
13-Apr-20 09:20 36.089649 -115.164149 295 2130ft 10kts
13-Apr-20 09:21 36.089432 -115.166840 271 2139ft 0kts
13-Apr-20 09:22 36.089432 -115.166840 271 2139ft 0kts
13-Apr-20 09:23 36.089436 -115.167146 270 2141ft 0kts
13-Apr-20 09:24 36.089436 -115.167146 270 2141ft 0kts
13-Apr-20 09:25 36.089436 -115.167146 270 2141ft 0kts
13-Apr-20 09:26 36.089436 -115.167146 270 2141ft 0kts
13-Apr-20 09:27 36.089436 -115.167146 270 2141ft 0kts
13-Apr-20 09:28 36.089436 -115.167146 270 2141ft 0kts

Navigation Log

Ident Type
Flight plan parsing failed, navigation log unavailable